sensor_id;sensor_type;location;lat;lon;timestamp;temperature;humidity
16273;DHT22;8244;50.044;9.006;2024-03-07T00:03:29;4.00;99.90
16273;DHT22;8244;50.044;9.006;2024-03-07T00:08:30;3.90;99.90
16273;DHT22;8244;50.044;9.006;2024-03-07T00:13:32;3.90;99.90
16273;DHT22;8244;50.044;9.006;2024-03-07T00:18:35;3.80;99.90
16273;DHT22;8244;50.044;9.006;2024-03-07T00:23:37;3.70;99.90
16273;DHT22;8244;50.044;9.006;2024-03-07T00:28:39;3.70;99.90
16273;DHT22;8244;50.044;9.006;2024-03-07T00:33:42;3.60;99.90
16273;DHT22;8244;50.044;9.006;2024-03-07T00:38:44;3.60;99.90
16273;DHT22;8244;50.044;9.006;2024-03-07T00:43:46;3.50;99.90
16273;DHT22;8244;50.044;9.006;2024-03-07T00:48:49;3.40;99.90
16273;DHT22;8244;50.044;9.006;2024-03-07T00:53:51;3.30;99.90
16273;DHT22;8244;50.044;9.006;2024-03-07T00:58:53;3.30;99.90
16273;DHT22;8244;50.044;9.006;2024-03-07T01:03:56;3.30;99.90
16273;DHT22;8244;50.044;9.006;2024-03-07T01:08:57;3.20;99.90
16273;DHT22;8244;50.044;9.006;2024-03-07T01:13:59;3.20;99.90
16273;DHT22;8244;50.044;9.006;2024-03-07T01:19:03;3.10;99.90
16273;DHT22;8244;50.044;9.006;2024-03-07T01:24:06;3.10;99.90
16273;DHT22;8244;50.044;9.006;2024-03-07T01:29:08;3.00;99.90
16273;DHT22;8244;50.044;9.006;2024-03-07T01:34:11;3.00;99.90
16273;DHT22;8244;50.044;9.006;2024-03-07T01:39:12;2.90;99.90
16273;DHT22;8244;50.044;9.006;2024-03-07T01:44:14;2.90;99.90
16273;DHT22;8244;50.044;9.006;2024-03-07T01:49:18;2.80;99.90
16273;DHT22;8244;50.044;9.006;2024-03-07T01:54:20;2.80;99.90
16273;DHT22;8244;50.044;9.006;2024-03-07T01:59:22;2.70;99.90
16273;DHT22;8244;50.044;9.006;2024-03-07T02:04:25;2.70;99.90
16273;DHT22;8244;50.044;9.006;2024-03-07T02:09:27;2.60;99.90
16273;DHT22;8244;50.044;9.006;2024-03-07T02:14:28;2.50;99.90
16273;DHT22;8244;50.044;9.006;2024-03-07T02:19:32;2.40;99.90
16273;DHT22;8244;50.044;9.006;2024-03-07T02:24:35;2.30;99.90
16273;DHT22;8244;50.044;9.006;2024-03-07T02:29:37;2.30;99.90
16273;DHT22;8244;50.044;9.006;2024-03-07T02:34:39;2.20;99.90
16273;DHT22;8244;50.044;9.006;2024-03-07T02:39:42;2.20;99.90
16273;DHT22;8244;50.044;9.006;2024-03-07T02:44:44;2.10;99.90
16273;DHT22;8244;50.044;9.006;2024-03-07T02:49:45;2.00;99.90
16273;DHT22;8244;50.044;9.006;2024-03-07T02:54:48;2.10;99.90
16273;DHT22;8244;50.044;9.006;2024-03-07T02:59:50;2.10;99.90
16273;DHT22;8244;50.044;9.006;2024-03-07T03:04:51;2.10;99.90
16273;DHT22;8244;50.044;9.006;2024-03-07T03:09:56;2.00;99.90
16273;DHT22;8244;50.044;9.006;2024-03-07T03:14:57;1.90;99.90
16273;DHT22;8244;50.044;9.006;2024-03-07T03:19:59;1.80;99.90
16273;DHT22;8244;50.044;9.006;2024-03-07T03:25:03;1.70;99.90
16273;DHT22;8244;50.044;9.006;2024-03-07T03:30:06;1.60;99.90
16273;DHT22;8244;50.044;9.006;2024-03-07T03:35:08;1.50;99.90
16273;DHT22;8244;50.044;9.006;2024-03-07T03:40:15;1.40;99.90
16273;DHT22;8244;50.044;9.006;2024-03-07T03:45:16;1.40;99.90
16273;DHT22;8244;50.044;9.006;2024-03-07T03:50:19;1.30;99.90
16273;DHT22;8244;50.044;9.006;2024-03-07T03:55:22;1.20;99.90
16273;DHT22;8244;50.044;9.006;2024-03-07T04:00:24;1.20;99.90
16273;DHT22;8244;50.044;9.006;2024-03-07T04:05:26;1.10;99.90
16273;DHT22;8244;50.044;9.006;2024-03-07T04:10:29;1.10;99.90
16273;DHT22;8244;50.044;9.006;2024-03-07T04:15:31;1.10;99.90
16273;DHT22;8244;50.044;9.006;2024-03-07T04:20:33;1.10;99.90
16273;DHT22;8244;50.044;9.006;2024-03-07T04:25:36;1.10;99.90
16273;DHT22;8244;50.044;9.006;2024-03-07T04:30:38;1.00;99.90
16273;DHT22;8244;50.044;9.006;2024-03-07T04:35:40;0.90;99.90
16273;DHT22;8244;50.044;9.006;2024-03-07T04:40:43;0.90;99.90
16273;DHT22;8244;50.044;9.006;2024-03-07T04:45:44;0.90;99.90
16273;DHT22;8244;50.044;9.006;2024-03-07T04:50:46;0.80;99.90
16273;DHT22;8244;50.044;9.006;2024-03-07T04:55:49;0.70;99.90
16273;DHT22;8244;50.044;9.006;2024-03-07T05:00:51;0.70;99.90
16273;DHT22;8244;50.044;9.006;2024-03-07T05:05:53;0.70;99.90
16273;DHT22;8244;50.044;9.006;2024-03-07T05:10:56;0.70;99.90
16273;DHT22;8244;50.044;9.006;2024-03-07T05:15:57;0.70;99.90
16273;DHT22;8244;50.044;9.006;2024-03-07T05:20:59;0.70;99.90
16273;DHT22;8244;50.044;9.006;2024-03-07T05:26:22;0.80;99.90
16273;DHT22;8244;50.044;9.006;2024-03-07T05:31:24;0.80;99.90
16273;DHT22;8244;50.044;9.006;2024-03-07T05:36:26;0.90;99.90
16273;DHT22;8244;50.044;9.006;2024-03-07T05:41:29;0.90;99.90
16273;DHT22;8244;50.044;9.006;2024-03-07T05:46:30;0.90;99.90
16273;DHT22;8244;50.044;9.006;2024-03-07T05:51:32;0.90;99.90
16273;DHT22;8244;50.044;9.006;2024-03-07T05:56:35;1.00;99.90
16273;DHT22;8244;50.044;9.006;2024-03-07T06:01:37;1.00;99.90
16273;DHT22;8244;50.044;9.006;2024-03-07T06:06:39;1.10;99.90
16273;DHT22;8244;50.044;9.006;2024-03-07T06:11:43;1.20;99.90
16273;DHT22;8244;50.044;9.006;2024-03-07T06:16:44;1.20;99.90
16273;DHT22;8244;50.044;9.006;2024-03-07T06:21:46;1.30;99.90
16273;DHT22;8244;50.044;9.006;2024-03-07T06:26:49;1.30;99.90
16273;DHT22;8244;50.044;9.006;2024-03-07T06:32:00;1.40;99.90
16273;DHT22;8244;50.044;9.006;2024-03-07T06:37:01;1.50;99.90
16273;DHT22;8244;50.044;9.006;2024-03-07T06:42:05;1.50;99.90
16273;DHT22;8244;50.044;9.006;2024-03-07T06:47:06;1.60;99.90
16273;DHT22;8244;50.044;9.006;2024-03-07T06:52:08;1.80;99.90
16273;DHT22;8244;50.044;9.006;2024-03-07T06:57:11;1.90;99.90
16273;DHT22;8244;50.044;9.006;2024-03-07T07:02:13;2.10;99.90
16273;DHT22;8244;50.044;9.006;2024-03-07T07:07:14;2.30;99.90
16273;DHT22;8244;50.044;9.006;2024-03-07T07:12:17;2.50;99.90
16273;DHT22;8244;50.044;9.006;2024-03-07T07:17:19;2.80;99.90
16273;DHT22;8244;50.044;9.006;2024-03-07T07:22:21;3.00;99.90
16273;DHT22;8244;50.044;9.006;2024-03-07T07:27:24;3.30;99.90
16273;DHT22;8244;50.044;9.006;2024-03-07T07:32:26;3.60;99.90
16273;DHT22;8244;50.044;9.006;2024-03-07T07:37:28;3.90;99.90
16273;DHT22;8244;50.044;9.006;2024-03-07T07:42:31;4.20;99.90
16273;DHT22;8244;50.044;9.006;2024-03-07T07:47:33;4.60;99.90
16273;DHT22;8244;50.044;9.006;2024-03-07T07:52:39;5.20;99.90
16273;DHT22;8244;50.044;9.006;2024-03-07T07:57:43;5.80;99.90
16273;DHT22;8244;50.044;9.006;2024-03-07T08:02:46;6.40;99.90
16273;DHT22;8244;50.044;9.006;2024-03-07T08:07:48;7.00;99.90
16273;DHT22;8244;50.044;9.006;2024-03-07T08:12:52;7.40;99.90
16273;DHT22;8244;50.044;9.006;2024-03-07T08:17:55;7.70;99.90
16273;DHT22;8244;50.044;9.006;2024-03-07T08:22:57;7.70;99.90
16273;DHT22;8244;50.044;9.006;2024-03-07T08:28:01;7.80;99.90
16273;DHT22;8244;50.044;9.006;2024-03-07T08:33:03;7.80;99.90
16273;DHT22;8244;50.044;9.006;2024-03-07T08:38:05;7.80;99.90
16273;DHT22;8244;50.044;9.006;2024-03-07T08:43:10;8.00;99.90
16273;DHT22;8244;50.044;9.006;2024-03-07T08:48:12;8.00;99.90
16273;DHT22;8244;50.044;9.006;2024-03-07T08:53:14;8.00;99.90
16273;DHT22;8244;50.044;9.006;2024-03-07T08:58:17;8.00;99.90
16273;DHT22;8244;50.044;9.006;2024-03-07T09:03:19;8.00;99.90
16273;DHT22;8244;50.044;9.006;2024-03-07T09:08:22;8.00;99.90
16273;DHT22;8244;50.044;9.006;2024-03-07T09:13:25;8.10;99.90
16273;DHT22;8244;50.044;9.006;2024-03-07T09:18:27;8.00;99.90
16273;DHT22;8244;50.044;9.006;2024-03-07T09:23:29;8.00;99.90
16273;DHT22;8244;50.044;9.006;2024-03-07T09:28:32;8.10;99.90
16273;DHT22;8244;50.044;9.006;2024-03-07T09:33:33;8.10;99.90
16273;DHT22;8244;50.044;9.006;2024-03-07T09:38:44;8.10;99.90
16273;DHT22;8244;50.044;9.006;2024-03-07T09:43:47;8.10;99.90
16273;DHT22;8244;50.044;9.006;2024-03-07T09:48:49;8.20;99.90
16273;DHT22;8244;50.044;9.006;2024-03-07T09:53:56;8.30;99.90
16273;DHT22;8244;50.044;9.006;2024-03-07T09:59:00;8.40;99.90
16273;DHT22;8244;50.044;9.006;2024-03-07T10:04:05;8.40;99.90
16273;DHT22;8244;50.044;9.006;2024-03-07T10:09:14;8.50;99.90
16273;DHT22;8244;50.044;9.006;2024-03-07T10:14:16;8.70;99.90
16273;DHT22;8244;50.044;9.006;2024-03-07T10:19:18;9.00;99.90
16273;DHT22;8244;50.044;9.006;2024-03-07T10:24:24;9.30;99.90
16273;DHT22;8244;50.044;9.006;2024-03-07T10:29:26;9.60;99.90
16273;DHT22;8244;50.044;9.006;2024-03-07T10:34:33;9.90;99.90
16273;DHT22;8244;50.044;9.006;2024-03-07T10:39:36;10.10;99.90
16273;DHT22;8244;50.044;9.006;2024-03-07T10:44:38;10.30;99.90
16273;DHT22;8244;50.044;9.006;2024-03-07T10:49:58;10.50;99.90
16273;DHT22;8244;50.044;9.006;2024-03-07T10:55:08;10.70;99.90
16273;DHT22;8244;50.044;9.006;2024-03-07T11:00:14;10.80;99.90
16273;DHT22;8244;50.044;9.006;2024-03-07T11:05:30;10.70;99.90
16273;DHT22;8244;50.044;9.006;2024-03-07T11:10:35;10.50;99.90
16273;DHT22;8244;50.044;9.006;2024-03-07T11:15:39;10.60;99.90
16273;DHT22;8244;50.044;9.006;2024-03-07T11:20:41;10.70;99.90
16273;DHT22;8244;50.044;9.006;2024-03-07T11:25:49;10.80;99.90
16273;DHT22;8244;50.044;9.006;2024-03-07T11:30:50;10.80;99.90
16273;DHT22;8244;50.044;9.006;2024-03-07T11:35:53;11.00;99.90
16273;DHT22;8244;50.044;9.006;2024-03-07T11:40:59;10.70;99.90
16273;DHT22;8244;50.044;9.006;2024-03-07T11:46:02;10.80;99.90
16273;DHT22;8244;50.044;9.006;2024-03-07T11:51:17;10.70;99.90
16273;DHT22;8244;50.044;9.006;2024-03-07T11:56:24;10.60;99.90
16273;DHT22;8244;50.044;9.006;2024-03-07T12:01:26;10.40;99.90
16273;DHT22;8244;50.044;9.006;2024-03-07T12:06:31;10.50;99.90
16273;DHT22;8244;50.044;9.006;2024-03-07T12:11:37;10.40;99.90
16273;DHT22;8244;50.044;9.006;2024-03-07T12:16:43;10.50;99.90
16273;DHT22;8244;50.044;9.006;2024-03-07T12:21:46;10.70;99.90
16273;DHT22;8244;50.044;9.006;2024-03-07T12:26:50;11.00;99.90
16273;DHT22;8244;50.044;9.006;2024-03-07T12:31:52;11.10;99.90
16273;DHT22;8244;50.044;9.006;2024-03-07T12:36:55;11.30;99.90
16273;DHT22;8244;50.044;9.006;2024-03-07T12:41:58;11.20;99.90
16273;DHT22;8244;50.044;9.006;2024-03-07T12:47:00;11.30;99.90
16273;DHT22;8244;50.044;9.006;2024-03-07T12:52:02;11.30;99.90
16273;DHT22;8244;50.044;9.006;2024-03-07T12:57:06;11.40;99.90
16273;DHT22;8244;50.044;9.006;2024-03-07T13:02:09;11.30;99.90
16273;DHT22;8244;50.044;9.006;2024-03-07T13:07:13;11.60;99.90
16273;DHT22;8244;50.044;9.006;2024-03-07T13:12:17;11.50;99.90
16273;DHT22;8244;50.044;9.006;2024-03-07T13:17:19;11.60;99.90
16273;DHT22;8244;50.044;9.006;2024-03-07T13:22:21;11.90;98.20
16273;DHT22;8244;50.044;9.006;2024-03-07T13:27:26;12.30;98.40
16273;DHT22;8244;50.044;9.006;2024-03-07T13:32:29;12.70;96.10
16273;DHT22;8244;50.044;9.006;2024-03-07T13:37:31;12.60;96.00
16273;DHT22;8244;50.044;9.006;2024-03-07T13:42:36;12.30;96.00
16273;DHT22;8244;50.044;9.006;2024-03-07T13:47:38;12.10;96.90
16273;DHT22;8244;50.044;9.006;2024-03-07T13:52:40;12.00;96.10
16273;DHT22;8244;50.044;9.006;2024-03-07T13:57:58;11.80;96.50
16273;DHT22;8244;50.044;9.006;2024-03-07T14:03:39;11.70;97.30
16273;DHT22;8244;50.044;9.006;2024-03-07T14:09:35;11.90;95.90
16273;DHT22;8244;50.044;9.006;2024-03-07T14:20:53;11.80;96.20
16273;DHT22;8244;50.044;9.006;2024-03-07T14:26:14;11.60;97.30
16273;DHT22;8244;50.044;9.006;2024-03-07T14:31:28;11.40;97.80
16273;DHT22;8244;50.044;9.006;2024-03-07T14:36:37;11.10;99.10
16273;DHT22;8244;50.044;9.006;2024-03-07T14:41:50;10.70;99.90
16273;DHT22;8244;50.044;9.006;2024-03-07T14:46:55;10.50;99.90
16273;DHT22;8244;50.044;9.006;2024-03-07T14:52:00;10.30;99.90
16273;DHT22;8244;50.044;9.006;2024-03-07T14:57:03;10.10;99.90
16273;DHT22;8244;50.044;9.006;2024-03-07T15:02:05;9.90;99.90
16273;DHT22;8244;50.044;9.006;2024-03-07T15:07:12;9.80;99.90
16273;DHT22;8244;50.044;9.006;2024-03-07T15:12:14;9.80;99.90
16273;DHT22;8244;50.044;9.006;2024-03-07T15:17:16;9.70;99.90
16273;DHT22;8244;50.044;9.006;2024-03-07T15:22:19;9.70;99.90
16273;DHT22;8244;50.044;9.006;2024-03-07T15:27:21;9.70;99.90
16273;DHT22;8244;50.044;9.006;2024-03-07T15:32:23;9.70;99.90
16273;DHT22;8244;50.044;9.006;2024-03-07T15:37:27;9.70;99.90
16273;DHT22;8244;50.044;9.006;2024-03-07T15:42:28;9.70;99.90
16273;DHT22;8244;50.044;9.006;2024-03-07T15:47:32;9.70;99.90
16273;DHT22;8244;50.044;9.006;2024-03-07T15:52:35;9.60;99.90
16273;DHT22;8244;50.044;9.006;2024-03-07T15:57:41;9.50;99.90
16273;DHT22;8244;50.044;9.006;2024-03-07T16:02:43;9.30;99.90
16273;DHT22;8244;50.044;9.006;2024-03-07T16:07:46;9.20;99.90
16273;DHT22;8244;50.044;9.006;2024-03-07T16:12:48;9.10;99.90
16273;DHT22;8244;50.044;9.006;2024-03-07T16:17:50;9.00;99.90
16273;DHT22;8244;50.044;9.006;2024-03-07T16:22:55;8.90;99.90
16273;DHT22;8244;50.044;9.006;2024-03-07T16:27:57;8.80;99.90
16273;DHT22;8244;50.044;9.006;2024-03-07T16:32:59;8.80;99.90
16273;DHT22;8244;50.044;9.006;2024-03-07T16:38:03;8.70;99.90
16273;DHT22;8244;50.044;9.006;2024-03-07T16:43:05;8.70;99.90
16273;DHT22;8244;50.044;9.006;2024-03-07T16:48:11;8.70;99.90
16273;DHT22;8244;50.044;9.006;2024-03-07T16:53:17;8.60;99.90
16273;DHT22;8244;50.044;9.006;2024-03-07T16:58:19;8.50;99.90
16273;DHT22;8244;50.044;9.006;2024-03-07T17:03:22;8.50;99.90
16273;DHT22;8244;50.044;9.006;2024-03-07T17:08:26;8.50;99.90
16273;DHT22;8244;50.044;9.006;2024-03-07T17:13:28;8.40;99.90
16273;DHT22;8244;50.044;9.006;2024-03-07T17:18:30;8.40;99.90
16273;DHT22;8244;50.044;9.006;2024-03-07T17:23:33;8.40;99.90
16273;DHT22;8244;50.044;9.006;2024-03-07T17:28:35;8.30;99.90
16273;DHT22;8244;50.044;9.006;2024-03-07T17:33:37;8.30;99.90
16273;DHT22;8244;50.044;9.006;2024-03-07T17:38:42;8.30;99.90
16273;DHT22;8244;50.044;9.006;2024-03-07T17:43:46;8.20;99.50
16273;DHT22;8244;50.044;9.006;2024-03-07T17:48:49;8.20;99.60
16273;DHT22;8244;50.044;9.006;2024-03-07T17:53:53;8.10;99.90
16273;DHT22;8244;50.044;9.006;2024-03-07T17:58:57;8.10;99.40
16273;DHT22;8244;50.044;9.006;2024-03-07T18:03:58;8.10;99.10
16273;DHT22;8244;50.044;9.006;2024-03-07T18:09:02;8.00;98.80
16273;DHT22;8244;50.044;9.006;2024-03-07T18:14:11;8.00;98.50
16273;DHT22;8244;50.044;9.006;2024-03-07T18:19:13;8.00;99.00
16273;DHT22;8244;50.044;9.006;2024-03-07T18:24:16;8.00;99.60
16273;DHT22;8244;50.044;9.006;2024-03-07T18:29:18;8.00;99.90
16273;DHT22;8244;50.044;9.006;2024-03-07T18:34:20;8.00;99.90
16273;DHT22;8244;50.044;9.006;2024-03-07T18:39:24;7.90;99.90
16273;DHT22;8244;50.044;9.006;2024-03-07T18:44:25;7.90;99.90
16273;DHT22;8244;50.044;9.006;2024-03-07T18:49:33;7.80;99.90
16273;DHT22;8244;50.044;9.006;2024-03-07T18:54:36;7.80;99.90
16273;DHT22;8244;50.044;9.006;2024-03-07T18:59:41;7.80;99.90
16273;DHT22;8244;50.044;9.006;2024-03-07T19:04:45;7.70;99.90
16273;DHT22;8244;50.044;9.006;2024-03-07T19:09:48;7.70;99.90
16273;DHT22;8244;50.044;9.006;2024-03-07T19:14:50;7.60;99.90
16273;DHT22;8244;50.044;9.006;2024-03-07T19:19:52;7.60;99.90
16273;DHT22;8244;50.044;9.006;2024-03-07T19:24:55;7.60;99.90
16273;DHT22;8244;50.044;9.006;2024-03-07T19:29:58;7.50;99.90
16273;DHT22;8244;50.044;9.006;2024-03-07T19:35:01;7.50;99.90
16273;DHT22;8244;50.044;9.006;2024-03-07T19:40:07;7.40;99.90
16273;DHT22;8244;50.044;9.006;2024-03-07T19:45:10;7.40;99.90
16273;DHT22;8244;50.044;9.006;2024-03-07T19:50:15;7.30;99.90
16273;DHT22;8244;50.044;9.006;2024-03-07T19:55:18;7.30;99.90
16273;DHT22;8244;50.044;9.006;2024-03-07T20:00:20;7.30;99.90
16273;DHT22;8244;50.044;9.006;2024-03-07T20:05:22;7.20;99.90
16273;DHT22;8244;50.044;9.006;2024-03-07T20:10:27;7.20;99.90
16273;DHT22;8244;50.044;9.006;2024-03-07T20:15:30;7.10;99.90
16273;DHT22;8244;50.044;9.006;2024-03-07T20:20:32;7.10;99.90
16273;DHT22;8244;50.044;9.006;2024-03-07T20:25:38;7.00;99.90
16273;DHT22;8244;50.044;9.006;2024-03-07T20:30:40;6.90;99.90
16273;DHT22;8244;50.044;9.006;2024-03-07T20:35:45;6.90;99.90
16273;DHT22;8244;50.044;9.006;2024-03-07T20:40:48;6.80;99.90
16273;DHT22;8244;50.044;9.006;2024-03-07T20:45:52;6.80;99.90
16273;DHT22;8244;50.044;9.006;2024-03-07T20:50:56;6.80;99.90
16273;DHT22;8244;50.044;9.006;2024-03-07T20:55:59;6.70;99.90
16273;DHT22;8244;50.044;9.006;2024-03-07T21:01:02;6.70;99.90
16273;DHT22;8244;50.044;9.006;2024-03-07T21:06:05;6.60;99.90
16273;DHT22;8244;50.044;9.006;2024-03-07T21:11:08;6.60;99.90
16273;DHT22;8244;50.044;9.006;2024-03-07T21:16:10;6.60;99.90
16273;DHT22;8244;50.044;9.006;2024-03-07T21:21:12;6.50;99.90
16273;DHT22;8244;50.044;9.006;2024-03-07T21:26:15;6.50;99.90
16273;DHT22;8244;50.044;9.006;2024-03-07T21:31:17;6.40;99.90
16273;DHT22;8244;50.044;9.006;2024-03-07T21:36:20;6.40;99.90
16273;DHT22;8244;50.044;9.006;2024-03-07T21:41:24;6.40;99.90
16273;DHT22;8244;50.044;9.006;2024-03-07T21:46:25;6.30;99.90
16273;DHT22;8244;50.044;9.006;2024-03-07T21:51:27;6.30;99.90
16273;DHT22;8244;50.044;9.006;2024-03-07T21:56:32;6.20;99.90
16273;DHT22;8244;50.044;9.006;2024-03-07T22:01:34;6.20;99.90
16273;DHT22;8244;50.044;9.006;2024-03-07T22:06:42;6.20;99.90
16273;DHT22;8244;50.044;9.006;2024-03-07T22:11:45;6.10;99.90
16273;DHT22;8244;50.044;9.006;2024-03-07T22:16:50;6.10;99.90
16273;DHT22;8244;50.044;9.006;2024-03-07T22:21:52;6.00;99.90
16273;DHT22;8244;50.044;9.006;2024-03-07T22:26:55;6.00;99.90
16273;DHT22;8244;50.044;9.006;2024-03-07T22:31:57;5.90;99.90
16273;DHT22;8244;50.044;9.006;2024-03-07T22:37:00;5.80;99.90
16273;DHT22;8244;50.044;9.006;2024-03-07T22:42:03;5.70;99.90
16273;DHT22;8244;50.044;9.006;2024-03-07T22:47:05;5.60;99.90
16273;DHT22;8244;50.044;9.006;2024-03-07T22:52:07;5.60;99.90
16273;DHT22;8244;50.044;9.006;2024-03-07T22:57:12;5.50;99.90
16273;DHT22;8244;50.044;9.006;2024-03-07T23:02:13;5.40;99.90
16273;DHT22;8244;50.044;9.006;2024-03-07T23:07:15;5.40;99.90
16273;DHT22;8244;50.044;9.006;2024-03-07T23:12:19;5.30;99.90
16273;DHT22;8244;50.044;9.006;2024-03-07T23:17:21;5.20;99.90
16273;DHT22;8244;50.044;9.006;2024-03-07T23:22:25;5.10;99.90
16273;DHT22;8244;50.044;9.006;2024-03-07T23:27:30;5.00;99.90
16273;DHT22;8244;50.044;9.006;2024-03-07T23:32:33;4.90;99.90
16273;DHT22;8244;50.044;9.006;2024-03-07T23:37:35;4.90;99.90
16273;DHT22;8244;50.044;9.006;2024-03-07T23:42:38;4.80;99.90
16273;DHT22;8244;50.044;9.006;2024-03-07T23:47:41;4.70;99.90
16273;DHT22;8244;50.044;9.006;2024-03-07T23:52:44;4.70;99.90
16273;DHT22;8244;50.044;9.006;2024-03-07T23:57:47;4.60;99.90
